createdAt,value
2022-11-24T00:00:07.133Z,988.62
2022-11-24T00:01:07.306Z,988.64
2022-11-24T00:02:07.187Z,988.63
2022-11-24T00:03:07.206Z,988.65
2022-11-24T00:04:07.084Z,988.62
2022-11-24T00:05:07.086Z,988.70
2022-11-24T00:06:07.054Z,988.58
2022-11-24T00:07:07.144Z,988.68
2022-11-24T00:08:07.051Z,988.72
2022-11-24T00:09:07.024Z,988.67
2022-11-24T00:10:07.005Z,988.72
2022-11-24T00:11:07.021Z,988.70
2022-11-24T00:12:06.977Z,988.72
2022-11-24T00:13:07.030Z,988.78
2022-11-24T00:14:06.992Z,988.74
2022-11-24T00:15:07.020Z,988.75
2022-11-24T00:16:06.938Z,988.74
2022-11-24T00:17:06.988Z,988.70
2022-11-24T00:18:06.928Z,988.76
2022-11-24T00:19:06.938Z,988.73
2022-11-24T00:20:06.901Z,988.75
2022-11-24T00:21:06.878Z,988.78
2022-11-24T00:22:06.883Z,988.77
2022-11-24T00:23:06.877Z,988.75
2022-11-24T00:24:06.858Z,988.78
2022-11-24T00:25:06.869Z,988.77
2022-11-24T00:26:06.881Z,988.81
2022-11-24T00:27:06.825Z,988.76
2022-11-24T00:28:06.887Z,988.82
2022-11-24T00:29:06.794Z,988.86
2022-11-24T00:30:06.795Z,988.88
2022-11-24T00:31:06.931Z,988.90
2022-11-24T00:32:06.770Z,988.83
2022-11-24T00:33:06.771Z,988.84
2022-11-24T00:34:06.735Z,988.88
2022-11-24T00:35:06.725Z,988.90
2022-11-24T00:36:06.739Z,988.91
2022-11-24T00:37:06.720Z,988.89
2022-11-24T00:38:06.680Z,988.91
2022-11-24T00:39:06.670Z,988.94
2022-11-24T00:40:06.663Z,988.96
2022-11-24T00:41:06.648Z,988.94
2022-11-24T00:42:06.646Z,988.96
2022-11-24T00:43:06.640Z,989.01
2022-11-24T00:44:06.626Z,988.93
2022-11-24T00:45:13.441Z,988.95
2022-11-24T00:46:07.725Z,988.97
2022-11-24T00:47:06.624Z,989.03
2022-11-24T00:48:06.596Z,989.06
2022-11-24T00:49:06.560Z,988.96
2022-11-24T00:50:06.561Z,988.98
2022-11-24T00:51:06.553Z,988.99
2022-11-24T00:52:06.528Z,989.01
2022-11-24T00:53:06.531Z,989.00
2022-11-24T00:54:06.527Z,989.03
2022-11-24T00:55:06.487Z,989.08
2022-11-24T00:56:06.490Z,989.06
2022-11-24T00:57:06.493Z,989.12
2022-11-24T00:58:06.474Z,989.10
2022-11-24T00:59:06.521Z,989.14
2022-11-24T01:00:06.442Z,989.10
2022-11-24T01:01:06.454Z,989.09
2022-11-24T01:02:06.445Z,989.12
2022-11-24T01:03:06.413Z,989.08
2022-11-24T01:04:06.383Z,989.14
2022-11-24T01:05:06.437Z,989.16
2022-11-24T01:06:06.413Z,989.19
2022-11-24T01:07:06.398Z,989.21
2022-11-24T01:08:06.353Z,989.21
2022-11-24T01:09:06.323Z,989.23
2022-11-24T01:10:06.312Z,989.24
2022-11-24T01:11:06.312Z,989.22
2022-11-24T01:12:06.336Z,989.26
2022-11-24T01:13:06.294Z,989.29
2022-11-24T01:14:06.316Z,989.29
2022-11-24T01:15:06.264Z,989.29
2022-11-24T01:16:06.301Z,989.39
2022-11-24T01:17:06.246Z,989.36
2022-11-24T01:18:06.243Z,989.35
2022-11-24T01:19:06.219Z,989.36
2022-11-24T01:20:06.213Z,989.29
2022-11-24T01:21:10.016Z,989.36
2022-11-24T01:22:06.223Z,989.36
2022-11-24T01:23:06.234Z,989.39
2022-11-24T01:24:06.209Z,989.44
2022-11-24T01:25:06.147Z,989.42
2022-11-24T01:26:06.133Z,989.42
2022-11-24T01:27:06.134Z,989.49
2022-11-24T01:28:06.105Z,989.41
2022-11-24T01:29:06.136Z,989.45
2022-11-24T01:30:06.101Z,989.44
2022-11-24T01:31:06.207Z,989.45
2022-11-24T01:32:06.065Z,989.44
2022-11-24T01:33:06.140Z,989.40
2022-11-24T01:34:06.047Z,989.44
2022-11-24T01:35:06.082Z,989.44
2022-11-24T01:36:06.021Z,989.42
2022-11-24T01:37:06.026Z,989.37
2022-11-24T01:38:06.014Z,989.39
2022-11-24T01:39:05.986Z,989.40
2022-11-24T01:40:06.007Z,989.48
2022-11-24T01:41:05.990Z,989.51
2022-11-24T01:42:05.994Z,989.46
2022-11-24T01:43:05.932Z,989.45
2022-11-24T01:44:05.967Z,989.46
2022-11-24T01:45:05.914Z,989.50
2022-11-24T01:46:05.937Z,989.52
2022-11-24T01:47:05.957Z,989.53
2022-11-24T01:48:05.906Z,989.55
2022-11-24T01:49:05.876Z,989.49
2022-11-24T01:50:05.874Z,989.54
2022-11-24T01:51:05.876Z,989.62
2022-11-24T01:52:05.856Z,989.60
2022-11-24T01:53:05.855Z,989.63
2022-11-24T01:54:05.807Z,989.54
2022-11-24T01:55:05.797Z,989.64
2022-11-24T01:56:05.791Z,989.57
2022-11-24T01:57:05.799Z,989.57
2022-11-24T01:58:05.805Z,989.61
2022-11-24T01:59:05.755Z,989.54
2022-11-24T02:00:05.758Z,989.61
2022-11-24T02:01:05.751Z,989.66
2022-11-24T02:02:05.774Z,989.64
2022-11-24T02:03:05.737Z,989.63
2022-11-24T02:04:05.708Z,989.67
2022-11-24T02:05:05.690Z,989.65
2022-11-24T02:06:05.667Z,989.65
2022-11-24T02:07:05.671Z,989.68
2022-11-24T02:08:05.680Z,989.70
2022-11-24T02:09:05.671Z,989.64
2022-11-24T02:10:05.619Z,989.68
2022-11-24T02:11:05.628Z,989.71
2022-11-24T02:12:05.599Z,989.72
2022-11-24T02:13:05.599Z,989.73
2022-11-24T02:14:05.589Z,989.77
2022-11-24T02:15:05.617Z,989.71
2022-11-24T02:16:05.660Z,989.68
2022-11-24T02:17:05.550Z,989.70
2022-11-24T02:18:05.601Z,989.80
2022-11-24T02:19:05.539Z,989.79
2022-11-24T02:20:05.559Z,989.80
2022-11-24T02:21:05.511Z,989.79
2022-11-24T02:22:05.491Z,989.82
2022-11-24T02:23:05.502Z,989.79
2022-11-24T02:24:05.468Z,989.88
2022-11-24T02:25:05.491Z,989.87
2022-11-24T02:26:05.481Z,989.83
2022-11-24T02:27:05.482Z,989.90
2022-11-24T02:28:05.424Z,989.87
2022-11-24T02:29:05.401Z,989.87
2022-11-24T02:30:05.411Z,989.84
2022-11-24T02:31:05.458Z,989.85
2022-11-24T02:32:05.459Z,989.83
2022-11-24T02:33:05.361Z,989.85
2022-11-24T02:34:05.344Z,989.88
2022-11-24T02:35:05.355Z,989.87
2022-11-24T02:36:05.341Z,989.86
2022-11-24T02:37:05.321Z,989.91
2022-11-24T02:38:05.344Z,989.92
2022-11-24T02:39:05.281Z,989.86
2022-11-24T02:40:05.276Z,989.86
2022-11-24T02:41:05.306Z,989.92
2022-11-24T02:42:05.252Z,989.90
2022-11-24T02:43:05.241Z,989.87
2022-11-24T02:44:05.268Z,989.86
2022-11-24T02:45:05.222Z,989.85
2022-11-24T02:46:05.318Z,989.86
2022-11-24T02:47:05.192Z,989.83
2022-11-24T02:48:05.221Z,989.87
2022-11-24T02:49:05.173Z,989.82
2022-11-24T02:50:05.221Z,989.84
2022-11-24T02:51:05.173Z,989.77
2022-11-24T02:52:05.143Z,989.75
2022-11-24T02:53:05.124Z,989.72
2022-11-24T02:54:05.113Z,989.78
2022-11-24T02:55:05.122Z,989.73
2022-11-24T02:56:05.113Z,989.76
2022-11-24T02:57:05.086Z,989.79
2022-11-24T02:58:05.075Z,989.68
2022-11-24T02:59:05.068Z,989.79
2022-11-24T03:00:05.071Z,989.76
2022-11-24T03:01:05.085Z,989.73
2022-11-24T03:02:05.107Z,989.68
2022-11-24T03:03:05.051Z,989.75
2022-11-24T03:04:04.997Z,989.68
2022-11-24T03:05:04.990Z,989.67
2022-11-24T03:06:04.994Z,989.72
2022-11-24T03:07:04.967Z,989.69
2022-11-24T03:08:05.027Z,989.80
2022-11-24T03:09:04.948Z,989.77
2022-11-24T03:10:04.934Z,989.74
2022-11-24T03:11:04.926Z,989.80
2022-11-24T03:12:04.921Z,989.88
2022-11-24T03:13:04.908Z,989.91
2022-11-24T03:14:04.988Z,989.88
2022-11-24T03:15:04.866Z,989.86
2022-11-24T03:16:04.882Z,989.82
2022-11-24T03:17:04.911Z,989.86
2022-11-24T03:18:04.845Z,989.79
2022-11-24T03:19:04.830Z,989.86
2022-11-24T03:20:05.496Z,989.83
2022-11-24T03:21:04.811Z,989.81
2022-11-24T03:22:04.812Z,989.86
2022-11-24T03:23:04.790Z,989.86
2022-11-24T03:24:04.771Z,989.84
2022-11-24T03:25:04.758Z,989.81
2022-11-24T03:26:04.838Z,989.84
2022-11-24T03:27:04.732Z,989.86
2022-11-24T03:28:04.730Z,989.88
2022-11-24T03:29:04.730Z,989.89
2022-11-24T03:30:04.707Z,989.82
2022-11-24T03:31:04.771Z,989.86
2022-11-24T03:32:04.679Z,989.87
2022-11-24T03:33:04.666Z,989.82
2022-11-24T03:34:04.674Z,989.87
2022-11-24T03:35:04.638Z,989.89
2022-11-24T03:36:04.627Z,989.92
2022-11-24T03:37:04.668Z,989.93
2022-11-24T03:38:04.620Z,989.87
2022-11-24T03:39:04.611Z,989.87
2022-11-24T03:40:04.662Z,989.90
2022-11-24T03:41:04.579Z,989.91
2022-11-24T03:42:04.551Z,989.94
2022-11-24T03:43:04.609Z,989.98
2022-11-24T03:44:04.554Z,990.02
2022-11-24T03:45:23.064Z,989.97
2022-11-24T03:46:05.548Z,990.00
2022-11-24T03:47:04.515Z,989.99
2022-11-24T03:48:04.484Z,989.96
2022-11-24T03:49:04.510Z,989.99
2022-11-24T03:50:04.461Z,989.99
2022-11-24T03:51:04.483Z,990.03
2022-11-24T03:52:07.977Z,990.02
2022-11-24T03:53:04.464Z,990.02
2022-11-24T03:54:04.559Z,990.04
2022-11-24T03:55:04.437Z,990.04
2022-11-24T03:56:04.421Z,990.07
2022-11-24T03:57:04.406Z,990.03
2022-11-24T03:58:04.402Z,990.03
2022-11-24T03:59:04.361Z,989.96
2022-11-24T04:00:04.378Z,989.97
2022-11-24T04:01:04.347Z,989.98
2022-11-24T04:02:04.399Z,989.98
2022-11-24T04:03:04.373Z,990.05
2022-11-24T04:04:04.304Z,990.07
2022-11-24T04:05:04.296Z,990.01
2022-11-24T04:06:04.286Z,990.08
2022-11-24T04:07:04.273Z,989.98
2022-11-24T04:08:04.307Z,989.88
2022-11-24T04:09:04.244Z,990.05
2022-11-24T04:10:04.249Z,990.00
2022-11-24T04:11:04.214Z,990.09
2022-11-24T04:12:04.216Z,990.18
2022-11-24T04:13:04.198Z,990.10
2022-11-24T04:14:06.713Z,990.08
2022-11-24T04:15:05.200Z,990.20
2022-11-24T04:16:04.192Z,990.15
2022-11-24T04:17:04.184Z,990.21
2022-11-24T04:18:04.146Z,990.22
2022-11-24T04:19:04.129Z,990.24
2022-11-24T04:20:04.143Z,990.25
2022-11-24T04:21:04.128Z,990.29
2022-11-24T04:22:04.107Z,990.30
2022-11-24T04:23:04.084Z,990.28
2022-11-24T04:24:04.076Z,990.33
2022-11-24T04:25:04.075Z,990.32
2022-11-24T04:26:04.093Z,990.30
2022-11-24T04:27:04.039Z,990.35
2022-11-24T04:28:04.026Z,990.28
2022-11-24T04:29:04.010Z,990.32
2022-11-24T04:30:04.094Z,990.21
2022-11-24T04:31:04.068Z,990.19
2022-11-24T04:32:04.019Z,990.28
2022-11-24T04:33:03.966Z,990.16
2022-11-24T04:34:03.959Z,990.31
2022-11-24T04:35:03.958Z,990.26
2022-11-24T04:36:03.930Z,990.29
2022-11-24T04:37:03.957Z,990.32
2022-11-24T04:38:03.921Z,990.25
2022-11-24T04:39:22.906Z,990.35
2022-11-24T04:40:04.886Z,990.33
2022-11-24T04:41:03.890Z,990.37
2022-11-24T04:42:03.877Z,990.35
2022-11-24T04:43:03.874Z,990.36
2022-11-24T04:44:03.837Z,990.31
2022-11-24T04:45:03.825Z,990.40
2022-11-24T04:46:03.897Z,990.40
2022-11-24T04:47:03.819Z,990.39
2022-11-24T04:48:03.788Z,990.42
2022-11-24T04:49:03.829Z,990.38
2022-11-24T04:50:03.780Z,990.47
2022-11-24T04:51:03.749Z,990.45
2022-11-24T04:52:03.757Z,990.45
2022-11-24T04:53:03.732Z,990.43
2022-11-24T04:54:03.728Z,990.49
2022-11-24T04:55:03.776Z,990.46
2022-11-24T04:56:03.711Z,990.48
2022-11-24T04:57:03.691Z,990.45
2022-11-24T04:58:03.715Z,990.50
2022-11-24T04:59:08.013Z,990.47
2022-11-24T05:00:03.686Z,990.53
2022-11-24T05:01:03.669Z,990.59
2022-11-24T05:02:03.701Z,990.61
2022-11-24T05:03:03.658Z,990.63
2022-11-24T05:04:03.669Z,990.62
2022-11-24T05:05:03.629Z,990.77
2022-11-24T05:06:03.626Z,990.72
2022-11-24T05:07:03.611Z,990.67
2022-11-24T05:08:03.643Z,990.69
2022-11-24T05:09:03.625Z,990.73
2022-11-24T05:10:03.555Z,990.76
2022-11-24T05:11:03.562Z,990.80
2022-11-24T05:12:03.521Z,990.83
2022-11-24T05:13:03.865Z,990.86
2022-11-24T05:14:03.545Z,990.85
2022-11-24T05:15:03.502Z,990.85
2022-11-24T05:16:03.557Z,990.87
2022-11-24T05:17:03.758Z,990.87
2022-11-24T05:18:03.502Z,990.88
2022-11-24T05:19:03.503Z,990.91
2022-11-24T05:20:03.431Z,990.91
2022-11-24T05:21:03.441Z,990.93
2022-11-24T05:22:03.432Z,990.94
2022-11-24T05:23:03.461Z,990.89
2022-11-24T05:24:03.395Z,990.95
2022-11-24T05:25:03.364Z,990.97
2022-11-24T05:26:03.355Z,990.99
2022-11-24T05:27:03.368Z,991.03
2022-11-24T05:28:03.332Z,991.06
2022-11-24T05:29:03.337Z,991.05
2022-11-24T05:30:03.413Z,991.04
2022-11-24T05:31:03.368Z,991.02
2022-11-24T05:32:03.274Z,991.05
2022-11-24T05:33:03.273Z,991.05
2022-11-24T05:34:03.294Z,991.07
2022-11-24T05:35:03.305Z,991.04
2022-11-24T05:36:03.245Z,991.07
2022-11-24T05:37:03.231Z,991.06
2022-11-24T05:38:03.213Z,991.10
2022-11-24T05:39:03.228Z,991.09
2022-11-24T05:40:03.192Z,991.12
2022-11-24T05:41:03.206Z,991.13
2022-11-24T05:42:03.183Z,991.10
2022-11-24T05:43:03.162Z,991.13
2022-11-24T05:44:03.147Z,991.22
2022-11-24T05:45:03.190Z,991.14
2022-11-24T05:46:03.116Z,991.25
2022-11-24T05:47:03.208Z,991.24
2022-11-24T05:48:03.101Z,991.24
2022-11-24T05:49:03.100Z,991.29
2022-11-24T05:50:03.096Z,991.22
2022-11-24T05:51:07.849Z,991.22
2022-11-24T05:52:04.085Z,991.20
2022-11-24T05:53:03.036Z,991.28
2022-11-24T05:54:03.056Z,991.29
2022-11-24T05:55:03.036Z,991.33
2022-11-24T05:56:03.014Z,991.31
2022-11-24T05:57:02.996Z,991.27
2022-11-24T05:58:03.014Z,991.34
2022-11-24T05:59:08.145Z,991.25
2022-11-24T06:00:03.968Z,991.29
2022-11-24T06:01:02.982Z,991.28
2022-11-24T06:02:03.109Z,991.29
2022-11-24T06:03:03.039Z,991.30
2022-11-24T06:04:02.964Z,991.31
2022-11-24T06:05:02.896Z,991.33
2022-11-24T06:06:02.917Z,991.35
2022-11-24T06:07:02.896Z,991.37
2022-11-24T06:08:02.867Z,991.33
2022-11-24T06:09:02.857Z,991.38
2022-11-24T06:10:02.897Z,991.31
2022-11-24T06:11:02.831Z,991.34
2022-11-24T06:12:02.843Z,991.33
2022-11-24T06:13:02.951Z,991.38
2022-11-24T06:14:05.788Z,991.40
2022-11-24T06:15:03.797Z,991.42
2022-11-24T06:16:02.837Z,991.41
2022-11-24T06:17:02.767Z,991.46
2022-11-24T06:18:02.762Z,991.41
2022-11-24T06:19:03.007Z,991.39
2022-11-24T06:20:02.747Z,991.39
2022-11-24T06:21:10.696Z,991.45
2022-11-24T06:22:03.711Z,991.42
2022-11-24T06:23:02.709Z,991.46
2022-11-24T06:24:02.678Z,991.47
2022-11-24T06:25:02.698Z,991.44
2022-11-24T06:26:02.662Z,991.45
2022-11-24T06:27:02.679Z,991.52
2022-11-24T06:28:02.639Z,991.49
2022-11-24T06:29:02.641Z,991.46
2022-11-24T06:30:02.619Z,991.50
2022-11-24T06:31:02.627Z,991.49
2022-11-24T06:32:02.641Z,991.56
2022-11-24T06:33:02.609Z,991.54
2022-11-24T06:34:02.571Z,991.54
2022-11-24T06:35:02.568Z,991.55
2022-11-24T06:36:02.554Z,991.58
2022-11-24T06:37:02.531Z,991.57
2022-11-24T06:38:02.530Z,991.55
2022-11-24T06:39:02.547Z,991.59
2022-11-24T06:40:02.509Z,991.58
2022-11-24T06:41:02.500Z,991.61
2022-11-24T06:42:02.539Z,991.59
2022-11-24T06:43:02.462Z,991.62
2022-11-24T06:44:02.453Z,991.60
2022-11-24T06:45:07.382Z,991.55
2022-11-24T06:46:03.511Z,991.51
2022-11-24T06:47:02.460Z,991.56
2022-11-24T06:48:02.430Z,991.56
2022-11-24T06:49:02.411Z,991.56
2022-11-24T06:50:02.430Z,991.59
2022-11-24T06:51:02.392Z,991.56
2022-11-24T06:52:02.373Z,991.57
2022-11-24T06:53:02.375Z,991.49
2022-11-24T06:54:02.353Z,991.50
2022-11-24T06:55:02.362Z,991.50
2022-11-24T06:56:02.310Z,991.44
2022-11-24T06:57:02.323Z,991.58
2022-11-24T06:58:02.294Z,991.49
2022-11-24T06:59:02.302Z,991.53
2022-11-24T07:00:02.278Z,991.54
2022-11-24T07:01:02.333Z,991.51
2022-11-24T07:02:02.242Z,991.58
2022-11-24T07:03:02.333Z,991.55
2022-11-24T07:04:02.235Z,991.59
2022-11-24T07:05:02.328Z,991.61
2022-11-24T07:06:02.197Z,991.64
2022-11-24T07:07:02.187Z,991.66
2022-11-24T07:08:02.190Z,991.71
2022-11-24T07:09:02.192Z,991.69
2022-11-24T07:10:02.155Z,991.65
2022-11-24T07:11:02.165Z,991.69
2022-11-24T07:12:02.136Z,991.70
2022-11-24T07:13:02.151Z,991.71
2022-11-24T07:14:02.125Z,991.73
2022-11-24T07:15:02.157Z,991.76
2022-11-24T07:16:02.152Z,991.78
2022-11-24T07:17:02.076Z,991.74
2022-11-24T07:18:02.100Z,991.78
2022-11-24T07:19:02.064Z,991.85
2022-11-24T07:20:02.036Z,991.86
2022-11-24T07:21:02.082Z,991.83
2022-11-24T07:22:02.026Z,991.80
2022-11-24T07:23:02.007Z,991.81
2022-11-24T07:24:02.002Z,991.82
2022-11-24T07:25:01.986Z,991.84
2022-11-24T07:26:06.571Z,991.88
2022-11-24T07:27:03.053Z,991.82
2022-11-24T07:28:01.952Z,991.92
2022-11-24T07:29:01.949Z,991.89
2022-11-24T07:30:01.928Z,991.97
2022-11-24T07:31:01.936Z,991.97
2022-11-24T07:32:05.470Z,991.94
2022-11-24T07:33:01.924Z,992.01
2022-11-24T07:34:01.888Z,992.00
2022-11-24T07:35:01.881Z,991.97
2022-11-24T07:36:01.881Z,992.00
2022-11-24T07:37:01.858Z,991.95
2022-11-24T07:38:01.839Z,992.04
2022-11-24T07:39:01.850Z,991.99
2022-11-24T07:40:01.843Z,992.03
2022-11-24T07:41:01.799Z,992.01
2022-11-24T07:42:01.854Z,991.97
2022-11-24T07:43:01.799Z,992.07
2022-11-24T07:44:02.315Z,992.06
2022-11-24T07:45:02.187Z,992.12
2022-11-24T07:46:02.018Z,992.04
2022-11-24T07:47:01.980Z,992.08
2022-11-24T07:48:01.937Z,992.13
2022-11-24T07:49:01.740Z,992.03
2022-11-24T07:50:02.040Z,992.11
2022-11-24T07:51:01.741Z,992.11
2022-11-24T07:52:01.862Z,992.12
2022-11-24T07:53:01.795Z,992.10
2022-11-24T07:54:01.706Z,992.11
2022-11-24T07:55:01.761Z,992.14
2022-11-24T07:56:01.867Z,992.12
2022-11-24T07:57:01.656Z,992.14
2022-11-24T07:58:01.601Z,992.14
2022-11-24T07:59:01.595Z,992.14
2022-11-24T08:00:01.592Z,992.11
2022-11-24T08:01:01.574Z,992.16
2022-11-24T08:02:01.678Z,992.16
2022-11-24T08:03:01.599Z,992.17
2022-11-24T08:04:01.707Z,992.18
2022-11-24T08:05:01.578Z,992.20
2022-11-24T08:06:23.616Z,992.22
2022-11-24T08:07:02.527Z,992.26
2022-11-24T08:08:01.513Z,992.25
2022-11-24T08:09:01.487Z,992.26
2022-11-24T08:10:01.477Z,992.29
2022-11-24T08:11:01.466Z,992.29
2022-11-24T08:12:01.442Z,992.31
2022-11-24T08:13:01.432Z,992.28
2022-11-24T08:14:01.484Z,992.28
2022-11-24T08:15:03.310Z,992.24
2022-11-24T08:16:01.438Z,992.30
2022-11-24T08:17:01.463Z,992.30
2022-11-24T08:18:01.376Z,992.28
2022-11-24T08:19:01.420Z,992.24
2022-11-24T08:20:01.366Z,992.28
2022-11-24T08:21:01.355Z,992.34
2022-11-24T08:22:01.328Z,992.31
2022-11-24T08:23:01.315Z,992.32
2022-11-24T08:24:01.332Z,992.32
2022-11-24T08:25:01.382Z,992.34
2022-11-24T08:26:01.278Z,992.35
2022-11-24T08:27:01.268Z,992.38
2022-11-24T08:28:01.255Z,992.40
2022-11-24T08:29:01.275Z,992.29
2022-11-24T08:30:01.254Z,992.36
2022-11-24T08:31:01.319Z,992.37
2022-11-24T08:32:01.243Z,992.31
2022-11-24T08:33:01.209Z,992.33
2022-11-24T08:34:01.207Z,992.38
2022-11-24T08:35:13.454Z,992.42
2022-11-24T08:36:02.719Z,992.43
2022-11-24T08:37:01.165Z,992.48
2022-11-24T08:38:04.674Z,992.47
2022-11-24T08:39:01.156Z,992.52
2022-11-24T08:40:01.107Z,992.46
2022-11-24T08:41:01.107Z,992.45
2022-11-24T08:42:01.119Z,992.46
2022-11-24T08:43:01.078Z,992.47
2022-11-24T08:44:01.069Z,992.46
2022-11-24T08:45:17.524Z,992.51
2022-11-24T08:46:02.079Z,992.51
2022-11-24T08:47:01.054Z,992.50
2022-11-24T08:48:01.065Z,992.52
2022-11-24T08:49:01.027Z,992.58
2022-11-24T08:50:01.024Z,992.57
2022-11-24T08:51:01.001Z,992.61
2022-11-24T08:52:01.220Z,992.55
2022-11-24T08:53:00.991Z,992.59
2022-11-24T08:54:00.993Z,992.60
2022-11-24T08:55:00.963Z,992.63
2022-11-24T08:56:00.930Z,992.60
2022-11-24T08:57:00.940Z,992.65
2022-11-24T08:58:00.900Z,992.62
2022-11-24T08:59:00.978Z,992.65
2022-11-24T09:00:00.911Z,992.60
2022-11-24T09:01:00.899Z,992.72
2022-11-24T09:02:00.915Z,992.66
2022-11-24T09:03:00.882Z,992.65
2022-11-24T09:04:00.902Z,992.67
2022-11-24T09:05:00.821Z,992.79
2022-11-24T09:06:00.844Z,992.71
2022-11-24T09:07:00.804Z,992.71
2022-11-24T09:08:00.819Z,992.70
2022-11-24T09:09:00.852Z,992.69
2022-11-24T09:10:00.761Z,992.66
2022-11-24T09:11:00.766Z,992.74
2022-11-24T09:12:00.771Z,992.77
2022-11-24T09:13:00.742Z,992.77
2022-11-24T09:14:00.722Z,992.79
2022-11-24T09:15:00.725Z,992.75
2022-11-24T09:16:00.703Z,992.78
2022-11-24T09:17:00.715Z,992.76
2022-11-24T09:18:00.672Z,992.80
2022-11-24T09:19:00.653Z,992.78
2022-11-24T09:20:00.693Z,992.85
2022-11-24T09:21:00.664Z,992.82
2022-11-24T09:22:00.652Z,992.82
2022-11-24T09:23:00.657Z,992.85
2022-11-24T09:24:00.635Z,992.78
2022-11-24T09:25:00.596Z,992.86
2022-11-24T09:26:00.584Z,992.87
2022-11-24T09:27:00.576Z,992.90
2022-11-24T09:28:00.585Z,992.88
2022-11-24T09:29:00.545Z,992.95
2022-11-24T09:30:00.571Z,992.85
2022-11-24T09:31:00.632Z,992.93
2022-11-24T09:32:06.356Z,992.90
2022-11-24T09:33:01.655Z,992.92
2022-11-24T09:34:00.494Z,992.94
2022-11-24T09:35:00.534Z,992.96
2022-11-24T09:36:00.455Z,992.94
2022-11-24T09:37:00.462Z,992.99
2022-11-24T09:38:00.446Z,992.97
2022-11-24T09:39:00.440Z,993.01
2022-11-24T09:40:00.438Z,992.92
2022-11-24T09:41:00.439Z,992.98
2022-11-24T09:42:00.396Z,992.98
2022-11-24T09:43:00.404Z,993.01
2022-11-24T09:44:00.396Z,993.00
2022-11-24T09:45:00.404Z,993.04
2022-11-24T09:46:06.584Z,993.13
2022-11-24T09:47:01.479Z,993.04
2022-11-24T09:48:00.347Z,993.07
2022-11-24T09:49:00.326Z,993.11
2022-11-24T09:50:00.311Z,993.09
2022-11-24T09:51:00.288Z,993.08
2022-11-24T09:52:00.292Z,993.14
2022-11-24T09:53:00.358Z,993.14
2022-11-24T09:54:00.291Z,993.13
2022-11-24T09:55:00.246Z,993.14
2022-11-24T09:56:00.288Z,993.21
2022-11-24T09:57:00.218Z,993.24
2022-11-24T09:58:00.265Z,993.19
2022-11-24T09:59:00.198Z,993.24
2022-11-24T10:00:00.199Z,993.28
2022-11-24T10:01:00.320Z,993.28
2022-11-24T10:02:00.372Z,993.36
2022-11-24T10:03:00.229Z,993.39
2022-11-24T10:04:05.940Z,993.37
2022-11-24T10:05:01.206Z,993.38
2022-11-24T10:06:00.114Z,993.41
2022-11-24T10:07:00.121Z,993.39
2022-11-24T10:08:00.167Z,993.42
2022-11-24T10:09:00.161Z,993.42
2022-11-24T10:10:00.125Z,993.48
2022-11-24T10:11:00.062Z,993.50
2022-11-24T10:12:00.049Z,993.49
2022-11-24T10:13:00.046Z,993.51
2022-11-24T10:14:00.041Z,993.47
2022-11-24T10:15:00.032Z,993.50
2022-11-24T10:16:00.133Z,993.50
2022-11-24T10:17:00.003Z,993.46
2022-11-24T10:17:59.994Z,993.50
2022-11-24T10:18:59.981Z,993.55
2022-11-24T10:19:59.954Z,993.47
2022-11-24T10:20:59.932Z,993.51
2022-11-24T10:21:59.956Z,993.52
2022-11-24T10:22:59.925Z,993.55
2022-11-24T10:23:59.931Z,993.54
2022-11-24T10:24:59.901Z,993.46
2022-11-24T10:25:59.918Z,993.51
2022-11-24T10:26:59.873Z,993.55
2022-11-24T10:27:59.903Z,993.56
2022-11-24T10:28:59.864Z,993.61
2022-11-24T10:29:59.837Z,993.61
2022-11-24T10:30:59.875Z,993.61
2022-11-24T10:31:59.812Z,993.59
2022-11-24T10:32:59.825Z,993.62
2022-11-24T10:33:59.892Z,993.61
2022-11-24T10:34:59.787Z,993.65
2022-11-24T10:35:59.784Z,993.64
2022-11-24T10:36:59.764Z,993.70
2022-11-24T10:37:59.744Z,993.71
2022-11-24T10:38:59.757Z,993.69
2022-11-24T10:40:00.382Z,993.67
2022-11-24T10:40:59.820Z,993.70
2022-11-24T10:41:59.717Z,993.69
2022-11-24T10:42:59.713Z,993.73
2022-11-24T10:43:59.726Z,993.72
2022-11-24T10:44:59.695Z,993.74
2022-11-24T10:45:59.722Z,993.75
2022-11-24T10:46:59.695Z,993.80
2022-11-24T10:47:59.638Z,993.80
2022-11-24T10:48:59.616Z,993.80
2022-11-24T10:49:59.601Z,993.81
2022-11-24T10:50:59.627Z,993.79
2022-11-24T10:51:59.620Z,993.76
2022-11-24T10:52:59.617Z,993.78
2022-11-24T10:53:59.848Z,993.78
2022-11-24T10:54:59.550Z,993.79
2022-11-24T10:55:59.549Z,993.83
2022-11-24T10:56:59.549Z,993.79
2022-11-24T10:57:59.579Z,993.80
2022-11-24T10:58:59.512Z,993.78
2022-11-24T10:59:59.501Z,993.78
2022-11-24T11:00:59.934Z,993.86
2022-11-24T11:01:59.532Z,993.81
2022-11-24T11:02:59.562Z,993.82
2022-11-24T11:03:59.461Z,993.81
2022-11-24T11:04:59.654Z,993.86
2022-11-24T11:05:59.419Z,993.86
2022-11-24T11:06:59.439Z,993.78
2022-11-24T11:08:04.003Z,993.85
2022-11-24T11:09:00.445Z,993.84
2022-11-24T11:09:59.395Z,993.84
2022-11-24T11:10:59.371Z,993.87
2022-11-24T11:12:14.933Z,993.85
2022-11-24T11:13:00.373Z,993.85
2022-11-24T11:14:03.868Z,993.81
2022-11-24T11:15:00.349Z,993.79
2022-11-24T11:15:59.387Z,993.83
2022-11-24T11:16:59.306Z,993.80
2022-11-24T11:17:59.318Z,993.87
2022-11-24T11:18:59.632Z,993.84
2022-11-24T11:20:02.240Z,993.86
2022-11-24T11:20:59.283Z,993.85
2022-11-24T11:21:59.232Z,993.92
2022-11-24T11:22:59.213Z,993.90
2022-11-24T11:23:59.262Z,993.94
2022-11-24T11:24:59.193Z,993.87
2022-11-24T11:25:59.213Z,993.89
2022-11-24T11:26:59.186Z,993.86
2022-11-24T11:28:02.004Z,993.86
2022-11-24T11:31:15.141Z,993.94
2022-11-24T11:31:21.055Z,993.96
2022-11-24T11:34:03.303Z,994.02
2022-11-24T11:34:59.091Z,994.00
2022-11-24T11:35:59.095Z,994.02
2022-11-24T11:36:59.108Z,994.02
2022-11-24T11:37:59.109Z,994.06
2022-11-24T11:38:59.036Z,994.09
2022-11-24T11:39:59.066Z,994.03
2022-11-24T11:40:59.036Z,993.96
2022-11-24T11:41:59.000Z,994.04
2022-11-24T11:43:03.293Z,993.95
2022-11-24T11:43:58.987Z,993.93
2022-11-24T11:44:58.978Z,993.99
2022-11-24T11:45:59.103Z,994.00
2022-11-24T11:46:59.089Z,993.94
2022-11-24T11:47:58.943Z,993.93
2022-11-24T11:48:59.029Z,993.93
2022-11-24T11:49:58.915Z,993.99
2022-11-24T11:51:22.472Z,993.98
2022-11-24T11:52:00.020Z,993.92
2022-11-24T11:52:58.878Z,993.95
2022-11-24T11:53:59.654Z,993.93
2022-11-24T11:55:00.540Z,993.96
2022-11-24T11:55:59.747Z,993.91
2022-11-24T11:56:58.958Z,993.91
2022-11-24T11:57:58.939Z,994.05
2022-11-24T11:58:58.880Z,994.05
2022-11-24T11:59:59.351Z,994.00
2022-11-24T12:00:58.910Z,994.04
2022-11-24T12:01:58.897Z,994.05
2022-11-24T12:02:58.880Z,994.04
2022-11-24T12:03:58.809Z,994.14
2022-11-24T12:04:58.733Z,994.10
2022-11-24T12:05:58.720Z,994.13
2022-11-24T12:06:58.720Z,994.14
2022-11-24T12:07:59.750Z,994.12
2022-11-24T12:09:18.528Z,994.17
2022-11-24T12:09:59.700Z,994.22
2022-11-24T12:10:58.654Z,994.21
2022-11-24T12:11:58.681Z,994.19
2022-11-24T12:12:58.634Z,994.23
2022-11-24T12:13:58.652Z,994.27
2022-11-24T12:14:58.615Z,994.28
2022-11-24T12:15:58.677Z,994.29
2022-11-24T12:16:58.596Z,994.24
2022-11-24T12:17:58.631Z,994.37
2022-11-24T12:18:58.883Z,994.33
2022-11-24T12:19:58.555Z,994.32
2022-11-24T12:20:58.539Z,994.40
2022-11-24T12:21:58.531Z,994.37
2022-11-24T12:22:58.523Z,994.36
2022-11-24T12:23:58.548Z,994.37
2022-11-24T12:24:58.547Z,994.33
2022-11-24T12:25:58.472Z,994.33
2022-11-24T12:26:58.473Z,994.34
2022-11-24T12:27:58.486Z,994.34
2022-11-24T12:28:58.453Z,994.32
2022-11-24T12:29:58.466Z,994.34
2022-11-24T12:30:58.460Z,994.32